createdAt,value
2019-02-07T00:01:27.012Z,7.50
2019-02-07T00:04:13.838Z,10.80
2019-02-07T00:06:41.111Z,10.37
2019-02-07T00:09:27.949Z,9.47
2019-02-07T00:12:14.687Z,9.00
2019-02-07T00:14:42.051Z,6.77
2019-02-07T00:17:09.444Z,9.77
2019-02-07T00:19:37.071Z,9.30
2019-02-07T00:22:06.619Z,8.87
2019-02-07T00:24:53.457Z,10.00
2019-02-07T00:27:20.818Z,7.37
2019-02-07T00:30:07.656Z,6.80
2019-02-07T00:32:35.039Z,8.17
2019-02-07T00:35:21.884Z,9.53
2019-02-07T00:43:49.158Z,7.73
2019-02-07T00:46:35.987Z,6.43
2019-02-07T00:55:03.348Z,6.57
2019-02-07T00:57:50.099Z,4.23
2019-02-07T01:00:36.917Z,4.30
2019-02-07T01:03:04.548Z,5.90
2019-02-07T01:05:51.358Z,5.47
2019-02-07T01:11:17.409Z,4.20
2019-02-07T01:16:51.758Z,5.37
2019-02-07T01:19:38.570Z,4.53
2019-02-07T01:28:03.359Z,3.57
2019-02-07T01:30:30.719Z,3.53
2019-02-07T01:33:17.466Z,1.77
2019-02-07T01:35:44.736Z,4.00
2019-02-07T01:38:11.988Z,3.47
2019-02-07T01:40:39.341Z,3.50
2019-02-07T01:43:06.696Z,3.83
2019-02-07T01:45:53.543Z,2.50
2019-02-07T01:51:19.931Z,3.93
2019-02-07T01:54:06.706Z,3.87
2019-02-07T01:56:46.797Z,4.20
2019-02-07T01:59:14.498Z,5.00
2019-02-07T02:02:01.416Z,4.47
2019-02-07T02:07:27.476Z,4.97
2019-02-07T02:10:14.243Z,4.63
2019-02-07T02:13:01.074Z,4.40
2019-02-07T02:15:28.396Z,6.10
2019-02-07T02:17:55.956Z,4.37
2019-02-07T02:20:43.089Z,5.30
2019-02-07T02:23:10.455Z,4.83
2019-02-07T02:25:37.729Z,6.00
2019-02-07T02:28:24.568Z,6.40
2019-02-07T02:31:11.602Z,6.57
2019-02-07T02:33:38.965Z,5.70
2019-02-07T02:36:25.701Z,6.20
2019-02-07T02:38:53.055Z,4.63
2019-02-07T02:41:20.394Z,5.63
2019-02-07T02:43:47.649Z,4.20
2019-02-07T02:46:15.051Z,6.67
2019-02-07T02:48:42.392Z,4.03
2019-02-07T02:51:09.743Z,5.07
2019-02-07T02:53:37.041Z,5.67
2019-02-07T02:56:05.392Z,4.10
2019-02-07T02:58:32.754Z,5.00
2019-02-07T03:01:22.690Z,3.73
2019-02-07T03:03:56.807Z,3.60
2019-02-07T03:06:44.170Z,3.30
2019-02-07T03:09:37.209Z,3.73
2019-02-07T03:12:43.735Z,4.97
2019-02-07T03:15:50.230Z,4.10
2019-02-07T03:18:57.235Z,4.40
2019-02-07T03:22:01.875Z,4.63
2019-02-07T03:27:42.828Z,2.80
2019-02-07T03:30:49.185Z,4.03
2019-02-07T03:33:48.363Z,4.03
2019-02-07T03:39:24.772Z,5.60
2019-02-07T03:42:31.220Z,4.73
2019-02-07T03:45:11.645Z,2.37
2019-02-07T03:47:58.798Z,3.80
2019-02-07T03:50:51.809Z,4.77
2019-02-07T03:53:47.591Z,3.60
2019-02-07T03:56:53.939Z,5.40
2019-02-07T03:59:46.873Z,2.97
2019-02-07T04:02:33.858Z,4.30
2019-02-07T04:05:12.555Z,5.20
2019-02-07T04:08:18.865Z,3.23
2019-02-07T04:11:09.949Z,3.57
2019-02-07T04:13:57.081Z,2.93
2019-02-07T04:17:03.586Z,3.70
2019-02-07T04:22:48.114Z,4.20
2019-02-07T04:25:33.745Z,3.53
2019-02-07T04:28:40.212Z,2.60
2019-02-07T04:31:27.200Z,2.97
2019-02-07T04:34:12.439Z,2.80
2019-02-07T04:37:02.902Z,2.23
2019-02-07T04:39:58.387Z,3.77
2019-02-07T04:42:55.435Z,3.67
2019-02-07T04:45:50.986Z,4.43
2019-02-07T04:51:45.312Z,3.13
2019-02-07T04:54:53.533Z,4.30
2019-02-07T04:57:43.828Z,3.70
2019-02-07T05:03:35.319Z,6.37
2019-02-07T05:06:15.431Z,4.67
2019-02-07T05:09:08.510Z,4.03
2019-02-07T05:11:58.170Z,3.70
2019-02-07T05:15:04.738Z,4.60
2019-02-07T05:21:07.289Z,3.87
2019-02-07T05:23:54.136Z,4.13
2019-02-07T05:26:44.465Z,3.50
2019-02-07T05:29:23.432Z,3.67
2019-02-07T05:32:15.065Z,2.67
2019-02-07T05:35:21.298Z,2.70
2019-02-07T05:37:56.860Z,3.40
2019-02-07T05:41:03.083Z,2.73
2019-02-07T05:47:02.731Z,2.47
2019-02-07T05:50:09.020Z,3.23
2019-02-07T05:52:54.310Z,3.27
2019-02-07T05:55:39.843Z,2.47
2019-02-07T05:58:46.049Z,2.33
2019-02-07T06:01:32.958Z,2.40
2019-02-07T06:04:09.230Z,2.33
2019-02-07T06:07:15.734Z,2.33
2019-02-07T06:09:55.151Z,1.60
2019-02-07T06:12:30.888Z,2.13
2019-02-07T06:15:23.352Z,2.33
2019-02-07T06:18:08.453Z,2.20
2019-02-07T06:21:14.760Z,2.30
2019-02-07T06:23:58.041Z,3.70
2019-02-07T06:27:04.341Z,2.73
2019-02-07T06:29:51.772Z,3.17
2019-02-07T06:32:28.957Z,2.90
2019-02-07T06:35:16.612Z,4.27
2019-02-07T06:37:52.403Z,3.33
2019-02-07T06:40:45.108Z,3.70
2019-02-07T06:43:31.990Z,3.70
2019-02-07T06:46:38.551Z,3.27
2019-02-07T06:49:33.078Z,2.80
2019-02-07T06:52:39.324Z,3.07
2019-02-07T06:55:29.217Z,4.37
2019-02-07T06:58:18.957Z,3.87
2019-02-07T07:01:11.736Z,3.33
2019-02-07T07:09:54.593Z,2.80
2019-02-07T07:12:40.161Z,2.67
2019-02-07T07:15:46.359Z,3.27
2019-02-07T07:18:39.031Z,3.40
2019-02-07T07:21:20.427Z,4.60
2019-02-07T07:24:07.212Z,4.33
2019-02-07T07:27:13.514Z,4.30
2019-02-07T07:29:58.343Z,3.93
2019-02-07T07:33:04.912Z,2.70
2019-02-07T07:36:06.737Z,3.97
2019-02-07T07:38:59.371Z,8.57
2019-02-07T07:41:53.395Z,5.13
2019-02-07T07:44:43.282Z,7.63
2019-02-07T07:47:39.017Z,3.03
2019-02-07T07:50:17.381Z,3.70
2019-02-07T07:53:04.298Z,4.07
2019-02-07T07:55:48.519Z,5.83
2019-02-07T07:58:24.538Z,3.47
2019-02-07T08:01:30.842Z,5.00
2019-02-07T08:04:16.497Z,3.83
2019-02-07T08:06:52.626Z,5.13
2019-02-07T08:09:59.156Z,4.80
2019-02-07T08:12:34.809Z,4.30
2019-02-07T08:15:41.420Z,3.00
2019-02-07T08:18:28.465Z,3.33
2019-02-07T08:21:21.442Z,4.37
2019-02-07T08:23:56.895Z,4.77
2019-02-07T08:27:01.412Z,3.87
2019-02-07T08:29:38.241Z,4.77
2019-02-07T08:32:17.404Z,5.87
2019-02-07T08:35:04.231Z,4.93
2019-02-07T08:40:52.170Z,4.97
2019-02-07T08:43:37.620Z,4.40
2019-02-07T08:46:27.407Z,3.83
2019-02-07T08:49:23.297Z,4.40
2019-02-07T08:52:29.595Z,3.30
2019-02-07T08:55:22.152Z,5.03
2019-02-07T08:58:18.407Z,4.50
2019-02-07T09:01:24.949Z,4.53
2019-02-07T09:04:03.493Z,4.37
2019-02-07T09:06:46.819Z,4.40
2019-02-07T09:09:34.008Z,4.97
2019-02-07T09:12:26.556Z,3.40
2019-02-07T09:15:04.374Z,4.30
2019-02-07T09:20:58.048Z,3.90
2019-02-07T09:24:04.263Z,4.20
2019-02-07T09:26:49.838Z,5.53
2019-02-07T09:29:37.031Z,5.50
2019-02-07T09:32:24.082Z,3.30
2019-02-07T09:35:09.353Z,3.90
2019-02-07T09:37:54.942Z,4.20
2019-02-07T09:41:01.321Z,3.40
2019-02-07T09:44:07.877Z,3.57
2019-02-07T09:47:06.974Z,4.13
2019-02-07T09:49:50.640Z,4.10
2019-02-07T09:52:45.354Z,3.73
2019-02-07T09:55:51.558Z,5.50
2019-02-07T09:58:42.585Z,4.83
2019-02-07T10:01:33.461Z,4.80
2019-02-07T10:04:40.080Z,4.00
2019-02-07T10:07:14.808Z,3.20
2019-02-07T10:10:01.988Z,5.17
2019-02-07T10:13:06.467Z,3.10
2019-02-07T10:15:52.213Z,7.20
2019-02-07T10:18:42.112Z,3.17
2019-02-07T10:21:34.761Z,2.77
2019-02-07T10:24:33.618Z,3.73
2019-02-07T10:27:20.850Z,4.20
2019-02-07T10:30:27.163Z,3.03
2019-02-07T10:33:07.292Z,3.27
2019-02-07T10:35:52.519Z,2.93
2019-02-07T10:38:25.370Z,3.33
2019-02-07T10:41:15.262Z,3.37
2019-02-07T10:44:21.573Z,3.27
2019-02-07T10:47:06.895Z,2.83
2019-02-07T10:49:59.278Z,3.10
2019-02-07T10:52:40.835Z,3.20
2019-02-07T10:55:18.301Z,2.13
2019-02-07T10:58:25.541Z,2.80
2019-02-07T11:04:37.796Z,2.90
2019-02-07T11:07:24.666Z,3.83
2019-02-07T11:10:04.343Z,2.63
2019-02-07T11:12:53.993Z,3.13
2019-02-07T11:16:00.283Z,3.20
2019-02-07T11:24:45.135Z,2.87
2019-02-07T11:27:51.424Z,2.43
2019-02-07T11:33:31.520Z,1.33
2019-02-07T11:36:37.988Z,1.97
2019-02-07T11:42:42.666Z,2.23
2019-02-07T11:45:48.961Z,1.60
2019-02-07T11:48:41.701Z,3.53
2019-02-07T11:51:40.283Z,2.47
2019-02-07T11:54:39.354Z,2.30
2019-02-07T11:57:26.209Z,1.97
2019-02-07T12:03:12.231Z,2.03
2019-02-07T12:06:18.997Z,2.10
2019-02-07T12:08:53.499Z,1.87
2019-02-07T12:11:38.697Z,2.00
2019-02-07T12:14:23.818Z,2.70
2019-02-07T12:17:10.694Z,1.70
2019-02-07T12:20:16.903Z,2.37
2019-02-07T12:23:09.825Z,1.93
2019-02-07T12:25:47.619Z,1.60
2019-02-07T12:28:32.852Z,1.60
2019-02-07T12:31:27.165Z,1.53
2019-02-07T12:34:09.872Z,1.70
2019-02-07T12:37:16.416Z,2.67
2019-02-07T12:40:15.426Z,2.00
2019-02-07T12:43:01.384Z,1.70
2019-02-07T12:45:47.009Z,1.80
2019-02-07T12:48:32.213Z,2.07
2019-02-07T12:51:38.517Z,1.70
2019-02-07T12:57:35.819Z,1.43
2019-02-07T13:00:42.124Z,2.33
2019-02-07T13:03:47.411Z,2.53
2019-02-07T13:06:34.205Z,1.73
2019-02-07T13:09:19.381Z,1.93
2019-02-07T13:12:10.327Z,1.57
2019-02-07T13:14:50.606Z,1.60
2019-02-07T13:17:59.126Z,1.83
2019-02-07T13:20:45.936Z,1.37
2019-02-07T13:23:38.596Z,2.10
2019-02-07T13:26:44.910Z,1.87
2019-02-07T13:29:30.753Z,1.30
2019-02-07T13:32:12.588Z,1.43
2019-02-07T13:35:02.256Z,1.90
2019-02-07T13:38:08.551Z,1.10
2019-02-07T13:47:18.247Z,1.40
2019-02-07T13:50:05.013Z,1.70
2019-02-07T13:53:11.317Z,1.10
2019-02-07T13:55:52.028Z,1.37
2019-02-07T13:58:58.439Z,1.27
2019-02-07T14:01:54.842Z,1.30
2019-02-07T14:04:59.730Z,1.10
2019-02-07T14:08:06.273Z,1.10
2019-02-07T14:11:12.856Z,2.27
2019-02-07T14:14:08.344Z,1.40
2019-02-07T14:17:14.669Z,1.27
2019-02-07T14:20:07.785Z,1.83
2019-02-07T14:22:57.486Z,1.70
2019-02-07T14:25:33.397Z,1.27
2019-02-07T14:28:39.711Z,1.97
2019-02-07T14:31:25.238Z,2.07
2019-02-07T14:34:10.171Z,2.20
2019-02-07T14:36:55.753Z,2.90
2019-02-07T14:39:48.643Z,1.63
2019-02-07T14:51:27.599Z,2.20
2019-02-07T14:53:55.213Z,1.53
2019-02-07T14:56:22.478Z,2.47
2019-02-07T14:59:09.507Z,1.90
2019-02-07T15:01:56.371Z,1.90
2019-02-07T15:04:23.752Z,2.43
2019-02-07T15:07:10.879Z,1.73
2019-02-07T15:09:38.549Z,1.77
2019-02-07T15:12:25.733Z,2.20
2019-02-07T15:17:52.454Z,2.03
2019-02-07T15:20:26.317Z,1.30
2019-02-07T15:23:08.474Z,1.77
2019-02-07T15:25:35.890Z,1.70
2019-02-07T15:28:03.539Z,1.43
2019-02-07T15:30:50.386Z,1.40
2019-02-07T15:36:31.736Z,1.70
2019-02-07T15:39:18.563Z,2.30
2019-02-07T15:41:45.928Z,1.27
2019-02-07T15:44:13.299Z,1.13
2019-02-07T15:46:40.736Z,1.70
2019-02-07T15:49:08.612Z,1.80
2019-02-07T15:51:55.335Z,2.10
2019-02-07T15:54:22.922Z,1.77
2019-02-07T15:56:50.214Z,1.80
2019-02-07T15:59:22.094Z,1.50
2019-02-07T16:02:28.356Z,2.17
2019-02-07T16:05:15.297Z,1.43
2019-02-07T16:13:56.550Z,1.93
2019-02-07T16:16:43.383Z,1.20
2019-02-07T16:19:10.728Z,1.77
2019-02-07T16:21:38.256Z,2.63
2019-02-07T16:24:05.912Z,2.63
2019-02-07T16:26:33.273Z,2.23
2019-02-07T16:29:00.691Z,2.17
2019-02-07T16:31:47.515Z,1.80
2019-02-07T16:37:15.435Z,1.80
2019-02-07T16:39:42.852Z,1.50
2019-02-07T16:42:29.685Z,2.00
2019-02-07T16:44:57.333Z,3.90
2019-02-07T16:47:24.670Z,2.37
2019-02-07T16:49:52.063Z,2.47
2019-02-07T16:52:19.771Z,2.23
2019-02-07T16:54:47.410Z,2.20
2019-02-07T16:57:34.262Z,1.83
2019-02-07T17:00:21.124Z,2.40
2019-02-07T17:02:48.596Z,2.67
2019-02-07T17:05:17.049Z,2.77
2019-02-07T17:08:03.918Z,1.50
2019-02-07T17:10:50.739Z,1.73
2019-02-07T17:28:14.933Z,1.33
2019-02-07T17:30:42.285Z,2.53
2019-02-07T17:33:09.725Z,1.80
2019-02-07T17:35:37.376Z,2.70
2019-02-07T17:38:05.042Z,2.13
2019-02-07T17:40:51.900Z,1.97
2019-02-07T17:43:39.062Z,1.73
2019-02-07T17:46:06.423Z,2.87
2019-02-07T17:48:34.057Z,1.90
2019-02-07T17:51:23.222Z,1.40
2019-02-07T17:53:50.106Z,1.87
2019-02-07T17:56:17.481Z,1.70
2019-02-07T17:58:44.852Z,1.70
2019-02-07T18:01:12.208Z,1.87
2019-02-07T18:03:39.855Z,1.90
2019-02-07T18:06:27.049Z,2.10
2019-02-07T18:08:54.429Z,1.50
2019-02-07T18:11:21.728Z,1.63
2019-02-07T18:14:08.486Z,2.13
2019-02-07T18:16:36.241Z,2.40
2019-02-07T18:19:23.414Z,1.87
2019-02-07T18:21:51.062Z,2.20
2019-02-07T18:24:18.473Z,2.97
2019-02-07T18:26:45.892Z,2.23
2019-02-07T18:29:13.472Z,1.73
2019-02-07T18:32:00.361Z,1.90
2019-02-07T18:34:47.269Z,1.83
2019-02-07T18:43:12.664Z,1.83
2019-02-07T18:45:39.922Z,2.67
2019-02-07T18:48:27.051Z,2.00
2019-02-07T18:50:54.438Z,2.67
2019-02-07T18:53:41.908Z,3.90
2019-02-07T18:56:09.382Z,1.80
2019-02-07T18:58:36.799Z,1.93
2019-02-07T19:01:23.619Z,2.57
2019-02-07T19:03:51.395Z,2.00
2019-02-07T19:06:18.799Z,2.17
2019-02-07T19:08:46.231Z,3.10
2019-02-07T19:11:13.611Z,2.33
2019-02-07T19:13:40.984Z,1.93
2019-02-07T19:16:10.884Z,2.43
2019-02-07T19:18:38.370Z,2.30
2019-02-07T19:21:06.493Z,2.20
2019-02-07T19:23:34.304Z,2.20
2019-02-07T19:34:56.925Z,2.17
2019-02-07T19:37:43.760Z,2.37
2019-02-07T19:40:11.252Z,1.77
2019-02-07T19:42:38.606Z,1.80
2019-02-07T19:45:06.402Z,2.83
2019-02-07T19:47:53.454Z,2.83
2019-02-07T19:50:21.507Z,2.93
2019-02-07T19:52:49.478Z,2.60
2019-02-07T19:55:17.895Z,2.47
2019-02-07T19:58:04.744Z,3.43
2019-02-07T20:00:32.767Z,2.53
2019-02-07T20:03:19.599Z,2.73
2019-02-07T20:05:47.185Z,2.47
2019-02-07T20:08:34.213Z,2.27
2019-02-07T20:11:01.596Z,2.10
2019-02-07T20:13:48.430Z,2.10
2019-02-07T20:16:16.065Z,2.70
2019-02-07T20:18:43.643Z,1.57
2019-02-07T20:21:30.485Z,2.87
2019-02-07T20:23:58.115Z,1.43
2019-02-07T20:26:25.703Z,2.10
2019-02-07T20:29:12.542Z,2.30
2019-02-07T20:31:39.916Z,3.53
2019-02-07T20:34:26.766Z,1.77
2019-02-07T20:36:54.141Z,2.73
2019-02-07T20:39:21.529Z,2.47
2019-02-07T20:41:49.470Z,1.77
2019-02-07T20:44:16.828Z,1.97
2019-02-07T20:46:44.077Z,2.47
2019-02-07T20:49:30.831Z,2.87
2019-02-07T20:52:10.384Z,2.27
2019-02-07T20:54:37.982Z,2.13
2019-02-07T20:57:05.612Z,1.57
2019-02-07T20:59:32.972Z,2.07
2019-02-07T21:02:00.328Z,2.73
2019-02-07T21:04:27.729Z,3.10
2019-02-07T21:06:55.115Z,2.30
2019-02-07T21:09:22.474Z,2.07
2019-02-07T21:12:09.328Z,1.60
2019-02-07T21:14:36.720Z,2.13
2019-02-07T21:17:04.102Z,2.30
2019-02-07T21:19:50.963Z,1.97
2019-02-07T21:22:20.437Z,2.00
2019-02-07T21:24:48.079Z,2.00
2019-02-07T21:27:15.482Z,1.17
2019-02-07T21:29:42.832Z,1.87
2019-02-07T21:32:29.686Z,1.90
2019-02-07T21:41:07.990Z,2.37
2019-02-07T21:43:54.843Z,1.50
2019-02-07T21:46:22.481Z,1.80
2019-02-07T21:48:49.849Z,1.83
2019-02-07T21:51:17.502Z,2.03
2019-02-07T21:53:44.939Z,1.27
2019-02-07T21:56:12.301Z,1.43
2019-02-07T21:58:39.654Z,2.07
2019-02-07T22:01:26.969Z,1.83
2019-02-07T22:04:13.723Z,2.83
2019-02-07T22:21:32.914Z,1.37
2019-02-07T22:24:00.183Z,1.97
2019-02-07T22:26:27.835Z,1.00
2019-02-07T22:28:55.208Z,1.73
2019-02-07T22:31:22.563Z,1.40
2019-02-07T22:33:49.788Z,1.93
2019-02-07T22:36:36.657Z,1.47
2019-02-07T22:39:23.498Z,0.93
2019-02-07T22:44:49.094Z,2.00
2019-02-07T22:47:16.437Z,2.10
2019-02-07T22:49:43.967Z,1.40
2019-02-07T22:52:30.818Z,1.30
2019-02-07T22:54:58.188Z,1.60
2019-02-07T22:57:44.926Z,1.83
2019-02-07T23:03:20.399Z,1.40
2019-02-07T23:06:07.218Z,1.50
2019-02-07T23:08:34.863Z,1.73
2019-02-07T23:11:21.618Z,1.20
2019-02-07T23:17:01.600Z,1.50
2019-02-07T23:19:48.435Z,1.37
2019-02-07T23:34:12.312Z,1.57
2019-02-07T23:36:39.911Z,1.73
2019-02-07T23:39:08.348Z,2.17
2019-02-07T23:41:35.944Z,1.40
2019-02-07T23:44:22.889Z,1.67
2019-02-07T23:47:09.733Z,1.13
2019-02-07T23:49:36.991Z,1.43
2019-02-07T23:52:23.825Z,1.43
2019-02-07T23:54:51.449Z,1.83
2019-02-07T23:57:18.705Z,1.00
2019-02-07T23:59:46.079Z,1.73
